Time;durP1;ratioP1;P1;durP2;ratioP2;P2;SDS_P1;SDS_P2;PMS_P1;PMS_P2;Temp;Humidity;BMP_temperature;BMP_pressure;BME280_temperature;BME280_humidity;BME280_pressure;Samples;Min_cycle;Max_cycle;Signal;HPM_P1;HPM_P2
2023/03/27 00:01:18;;;;;;;5.55;1.25;;;6.00;99.90;;;;;;5030133;28;20057;-50
2023/03/27 00:03:47;;;;;;;10.50;1.42;;;6.00;99.90;;;;;;5029066;28;20052;-46
2023/03/27 00:06:16;;;;;;;5.80;1.20;;;6.00;99.90;;;;;;5027970;28;20069;-44
2023/03/27 00:08:45;;;;;;;9.50;1.73;;;6.00;99.90;;;;;;5012241;28;20035;-45
2023/03/27 00:11:11;;;;;;;6.22;1.50;;;6.00;99.90;;;;;;5030079;28;20025;-46
2023/03/27 00:13:38;;;;;;;6.45;1.60;;;6.00;99.90;;;;;;5029097;28;20120;-43
2023/03/27 00:16:04;;;;;;;5.75;1.60;;;6.00;99.90;;;;;;5029901;28;20104;-47
2023/03/27 00:18:31;;;;;;;4.78;1.55;;;6.00;99.90;;;;;;5028898;28;20226;-49
2023/03/27 00:20:59;;;;;;;7.47;1.80;;;6.00;99.90;;;;;;5029889;28;20536;-47
2023/03/27 00:23:28;;;;;;;7.43;1.60;;;6.10;99.90;;;;;;5030015;28;20017;-45
2023/03/27 00:25:54;;;;;;;2.88;1.00;;;6.10;99.90;;;;;;5026838;28;20037;-43
2023/03/27 00:28:20;;;;;;;4.30;1.38;;;6.10;99.90;;;;;;5028999;28;20501;-44
2023/03/27 00:30:47;;;;;;;6.68;1.50;;;6.10;99.90;;;;;;5029538;28;20032;-52
2023/03/27 00:33:13;;;;;;;3.35;1.25;;;6.10;99.90;;;;;;5028578;28;20470;-44
2023/03/27 00:35:47;;;;;;;4.38;1.27;;;6.00;99.90;;;;;;5029491;28;20018;-48
2023/03/27 00:38:14;;;;;;;10.15;1.95;;;6.10;99.90;;;;;;5026005;28;20021;-55
2023/03/27 00:40:40;;;;;;;6.40;1.58;;;6.10;99.90;;;;;;5028371;28;20382;-50
2023/03/27 00:43:25;;;;;;;6.25;1.63;;;6.10;99.90;;;;;;5010331;28;20021;-46
2023/03/27 00:45:57;;;;;;;5.95;1.65;;;6.10;99.90;;;;;;5006348;28;20041;-43
2023/03/27 00:48:24;;;;;;;6.90;1.92;;;6.10;99.90;;;;;;5028119;28;20076;-51
2023/03/27 00:50:51;;;;;;;9.10;1.58;;;6.10;99.90;;;;;;5029219;28;20478;-50
2023/03/27 00:53:25;;;;;;;6.10;1.80;;;6.00;99.90;;;;;;5006914;28;20414;-48
2023/03/27 00:55:53;;;;;;;3.80;1.50;;;6.00;99.90;;;;;;5028456;28;20076;-51
2023/03/27 00:58:27;;;;;;;8.35;1.40;;;6.00;99.90;;;;;;5028996;28;20033;-49
2023/03/27 01:00:54;;;;;;;4.28;1.02;;;6.00;99.90;;;;;;5028671;28;20053;-51
2023/03/27 01:03:22;;;;;;;6.68;1.70;;;6.00;99.90;;;;;;5026625;28;20026;-49
2023/03/27 01:05:50;;;;;;;6.60;1.55;;;6.00;99.90;;;;;;5028543;28;20026;-47
2023/03/27 01:08:19;;;;;;;8.63;1.55;;;5.90;99.90;;;;;;5026679;28;20029;-43
2023/03/27 01:11:03;;;;;;;9.55;1.65;;;5.90;99.90;;;;;;5010203;28;20021;-50
2023/03/27 01:13:41;;;;;;;5.72;1.55;;;5.90;99.90;;;;;;5026585;28;20018;-45
2023/03/27 01:16:19;;;;;;;6.05;1.50;;;5.90;99.90;;;;;;5026082;28;20030;-45
2023/03/27 01:18:57;;;;;;;6.70;1.38;;;5.90;99.90;;;;;;5027723;28;20025;-47
2023/03/27 01:21:37;;;;;;;6.63;1.67;;;5.90;99.90;;;;;;5028254;28;20072;-47
2023/03/27 01:24:30;;;;;;;5.00;1.73;;;5.90;99.90;;;;;;5029130;28;20033;-53
2023/03/27 01:27:11;;;;;;;10.57;2.08;;;5.80;99.90;;;;;;5027122;28;20030;-48
2023/03/27 01:29:40;;;;;;;9.95;1.60;;;5.80;99.90;;;;;;5009962;28;20211;-54
2023/03/27 01:32:46;;;;;;;6.55;1.48;;;5.90;99.90;;;;;;5028776;28;20512;-51
2023/03/27 01:35:30;;;;;;;2.97;1.13;;;5.90;99.90;;;;;;5027898;28;20022;-45
2023/03/27 01:38:11;;;;;;;6.63;1.30;;;5.90;99.90;;;;;;5027409;28;20123;-55
2023/03/27 01:41:10;;;;;;;7.72;1.75;;;5.90;99.90;;;;;;5027194;28;20060;-50
2023/03/27 01:43:44;;;;;;;7.22;1.60;;;5.90;99.90;;;;;;4997014;28;20049;-46
2023/03/27 01:46:28;;;;;;;3.28;1.25;;;5.90;99.90;;;;;;5027856;28;20051;-46
2023/03/27 01:49:10;;;;;;;6.63;1.40;;;5.90;99.90;;;;;;5029159;28;20028;-52
2023/03/27 01:51:45;;;;;;;4.70;1.33;;;5.90;99.90;;;;;;5028422;28;20033;-49
2023/03/27 01:54:23;;;;;;;6.10;1.35;;;5.90;99.90;;;;;;5027334;28;20013;-46
2023/03/27 01:57:03;;;;;;;5.78;1.40;;;5.90;99.90;;;;;;5028192;28;20464;-51
2023/03/27 01:59:32;;;;;;;3.67;1.15;;;5.90;99.90;;;;;;5011111;28;20018;-43
2023/03/27 02:02:03;;;;;;;4.63;1.40;;;5.90;99.90;;;;;;5026254;28;20095;-45
2023/03/27 02:04:54;;;;;;;5.85;1.02;;;5.80;99.90;;;;;;5026584;28;20025;-54
2023/03/27 02:07:29;;;;;;;7.93;1.65;;;5.90;99.90;;;;;;5024976;28;20049;-45
2023/03/27 02:09:59;;;;;;;4.60;1.10;;;5.80;99.90;;;;;;5027049;28;20030;-47
2023/03/27 02:12:31;;;;;;;7.03;1.50;;;5.80;99.90;;;;;;5027277;28;20505;-52
2023/03/27 02:15:13;;;;;;;5.38;1.45;;;5.80;99.90;;;;;;5009760;28;20053;-47
2023/03/27 02:17:47;;;;;;;7.10;1.30;;;5.80;99.90;;;;;;5027791;28;20109;-42
2023/03/27 02:20:15;;;;;;;10.20;1.98;;;5.70;99.90;;;;;;5028061;28;20445;-43
2023/03/27 02:22:47;;;;;;;4.35;1.40;;;5.80;99.90;;;;;;5028811;28;20072;-46
2023/03/27 02:25:33;;;;;;;4.75;1.27;;;5.80;99.90;;;;;;5027658;28;20025;-41
2023/03/27 02:28:17;;;;;;;4.28;1.55;;;5.80;99.90;;;;;;5024397;28;20506;-42
2023/03/27 02:31:01;;;;;;;8.25;1.70;;;5.80;99.90;;;;;;5022476;28;20150;-42
2023/03/27 02:33:40;;;;;;;6.50;1.48;;;5.80;99.90;;;;;;5026744;28;20029;-43
2023/03/27 02:36:15;;;;;;;5.97;1.30;;;5.80;99.90;;;;;;5032803;28;20096;-45
2023/03/27 02:38:45;;;;;;;6.10;1.52;;;5.80;99.90;;;;;;5031239;28;20313;-46
2023/03/27 02:41:29;;;;;;;5.00;1.10;;;5.80;99.90;;;;;;5031149;28;20053;-42
2023/03/27 02:44:07;;;;;;;6.38;1.55;;;5.70;99.90;;;;;;5031864;28;20035;-44
2023/03/27 02:46:41;;;;;;;7.88;1.60;;;5.70;99.90;;;;;;5005315;28;20037;-49
2023/03/27 02:49:19;;;;;;;4.20;1.20;;;5.80;99.90;;;;;;5030507;28;20064;-42
2023/03/27 02:51:52;;;;;;;8.57;1.55;;;5.70;99.90;;;;;;5031701;28;20022;-42
2023/03/27 02:54:33;;;;;;;3.40;1.00;;;5.70;99.90;;;;;;5030197;28;20026;-48
2023/03/27 02:57:04;;;;;;;11.13;1.98;;;5.70;99.90;;;;;;5032155;28;20021;-44
2023/03/27 02:59:34;;;;;;;6.38;1.58;;;5.70;99.90;;;;;;5032314;28;20044;-55
2023/03/27 03:02:08;;;;;;;8.75;1.90;;;5.70;99.90;;;;;;5031130;28;20666;-42
2023/03/27 03:04:45;;;;;;;9.27;1.63;;;5.70;99.90;;;;;;5030209;28;20104;-42
2023/03/27 03:07:13;;;;;;;5.18;2.22;;;5.70;99.90;;;;;;5031116;28;20140;-44
2023/03/27 03:09:39;;;;;;;4.22;1.35;;;5.70;99.90;;;;;;5031426;28;20056;-43
2023/03/27 03:12:05;;;;;;;6.00;1.40;;;5.70;99.90;;;;;;5029967;28;20389;-42
2023/03/27 03:14:35;;;;;;;6.28;1.08;;;5.70;99.90;;;;;;5031814;28;20044;-42
2023/03/27 03:17:01;;;;;;;7.93;1.60;;;5.70;99.90;;;;;;5031543;28;20033;-44
2023/03/27 03:19:26;;;;;;;4.72;1.30;;;5.70;99.90;;;;;;5031541;28;20195;-44
2023/03/27 03:21:52;;;;;;;6.32;1.38;;;5.60;99.90;;;;;;5031222;28;20029;-47
2023/03/27 03:24:20;;;;;;;6.60;1.30;;;5.60;99.90;;;;;;5029634;28;20380;-42
2023/03/27 03:26:48;;;;;;;4.07;1.30;;;5.60;99.90;;;;;;5032033;28;20037;-48
2023/03/27 03:29:15;;;;;;;4.38;1.33;;;5.50;99.90;;;;;;5031289;28;20036;-43
2023/03/27 03:31:44;;;;;;;6.43;1.40;;;5.50;99.90;;;;;;5030939;28;20032;-49
2023/03/27 03:34:11;;;;;;;7.33;1.50;;;5.50;99.90;;;;;;5030992;28;20025;-46
2023/03/27 03:36:37;;;;;;;7.05;1.40;;;5.50;99.90;;;;;;5031200;28;20294;-46
2023/03/27 03:39:04;;;;;;;4.15;1.35;;;5.50;99.90;;;;;;5014958;28;20022;-46
2023/03/27 03:41:30;;;;;;;5.68;1.35;;;5.50;99.90;;;;;;5030273;28;20033;-44
2023/03/27 03:43:55;;;;;;;3.95;1.10;;;5.40;99.90;;;;;;5031493;28;20393;-47
2023/03/27 03:46:21;;;;;;;4.50;1.15;;;5.50;99.90;;;;;;5030139;28;20047;-45
2023/03/27 03:48:47;;;;;;;5.53;1.02;;;5.50;99.90;;;;;;5029789;28;20405;-48
2023/03/27 03:51:12;;;;;;;8.38;1.70;;;5.40;99.90;;;;;;5032339;28;20033;-45
2023/03/27 03:53:38;;;;;;;4.70;1.27;;;5.40;99.90;;;;;;5031653;28;20025;-46
2023/03/27 03:56:04;;;;;;;6.25;1.48;;;5.40;99.90;;;;;;5029577;28;20100;-43
2023/03/27 03:58:30;;;;;;;4.53;1.42;;;5.40;99.90;;;;;;5032031;28;20025;-55
2023/03/27 04:00:56;;;;;;;5.25;1.30;;;5.30;99.90;;;;;;5014008;28;20124;-47
2023/03/27 04:03:25;;;;;;;5.32;1.65;;;5.30;99.90;;;;;;5031993;28;20460;-52
2023/03/27 04:05:52;;;;;;;5.28;1.17;;;5.20;99.90;;;;;;5018817;28;20068;-49
2023/03/27 04:08:17;;;;;;;6.85;1.50;;;5.20;99.90;;;;;;5031842;28;20108;-46
2023/03/27 04:10:43;;;;;;;7.10;1.20;;;5.10;99.90;;;;;;5031326;28;20108;-42
2023/03/27 04:13:09;;;;;;;8.55;1.33;;;5.10;99.90;;;;;;5031413;28;20461;-59
2023/03/27 04:15:35;;;;;;;4.72;1.00;;;5.00;99.90;;;;;;5031503;28;20052;-46
2023/03/27 04:18:01;;;;;;;6.32;1.40;;;4.90;99.90;;;;;;5031472;28;20394;-43
2023/03/27 04:20:27;;;;;;;8.50;1.30;;;4.80;99.90;;;;;;5031399;28;20079;-47
2023/03/27 04:22:55;;;;;;;5.35;1.30;;;4.70;99.90;;;;;;5031376;28;20494;-53
2023/03/27 04:25:23;;;;;;;4.57;1.20;;;4.70;99.90;;;;;;5031014;28;20434;-52
2023/03/27 04:27:50;;;;;;;5.30;1.10;;;4.70;99.90;;;;;;5031364;28;20109;-50
2023/03/27 04:30:23;;;;;;;8.40;1.30;;;4.60;99.90;;;;;;5031377;28;20025;-49
2023/03/27 04:32:50;;;;;;;8.30;1.33;;;4.60;99.90;;;;;;5031275;28;20108;-44
2023/03/27 04:35:17;;;;;;;3.67;1.52;;;4.60;99.90;;;;;;5031384;28;20516;-47
2023/03/27 04:37:43;;;;;;;4.60;1.40;;;4.60;99.90;;;;;;5031327;28;20198;-43
2023/03/27 04:40:12;;;;;;;6.72;1.10;;;4.60;99.90;;;;;;5030737;28;20049;-53
2023/03/27 04:42:42;;;;;;;5.32;1.30;;;4.60;99.90;;;;;;5031255;28;20042;-52
2023/03/27 04:45:22;;;;;;;5.38;1.27;;;4.50;99.90;;;;;;5031047;28;20071;-43
2023/03/27 04:47:47;;;;;;;5.75;1.30;;;4.50;99.90;;;;;;5019269;28;20044;-46
2023/03/27 04:50:14;;;;;;;3.25;1.63;;;4.40;99.90;;;;;;5031099;28;20386;-54
2023/03/27 04:52:41;;;;;;;5.97;1.30;;;4.40;99.90;;;;;;5001202;28;20112;-51
2023/03/27 04:55:07;;;;;;;4.18;1.40;;;4.30;99.90;;;;;;5030464;28;20080;-47
2023/03/27 04:57:33;;;;;;;6.45;1.63;;;4.30;99.90;;;;;;5029909;28;20026;-52
2023/03/27 04:59:59;;;;;;;7.35;1.50;;;4.30;99.90;;;;;;5030898;28;20395;-52
2023/03/27 05:02:25;;;;;;;3.65;1.33;;;4.30;99.90;;;;;;5030466;28;20053;-47
2023/03/27 05:04:57;;;;;;;5.07;1.30;;;4.30;99.90;;;;;;5030545;28;20033;-42
2023/03/27 05:07:24;;;;;;;5.30;1.30;;;4.30;99.90;;;;;;5028989;28;20060;-53
2023/03/27 05:09:50;;;;;;;7.35;1.40;;;4.20;99.90;;;;;;5030450;28;20022;-49
2023/03/27 05:12:16;;;;;;;7.05;1.92;;;4.20;99.90;;;;;;5030325;28;20121;-45
2023/03/27 05:14:42;;;;;;;4.28;1.40;;;4.20;99.90;;;;;;5030694;28;20406;-49
2023/03/27 05:17:08;;;;;;;7.63;1.50;;;4.30;99.90;;;;;;5030740;28;20517;-51
2023/03/27 05:19:36;;;;;;;7.90;1.50;;;4.30;99.90;;;;;;5030597;28;20033;-50
2023/03/27 05:22:02;;;;;;;5.90;1.30;;;4.20;99.90;;;;;;5013288;28;20033;-48
2023/03/27 05:24:27;;;;;;;8.07;1.38;;;4.30;99.90;;;;;;5029894;28;20041;-47
2023/03/27 05:26:53;;;;;;;4.57;1.40;;;4.30;99.90;;;;;;5030447;28;20082;-56
2023/03/27 05:29:18;;;;;;;5.70;1.60;;;4.20;99.90;;;;;;5030548;28;20513;-52
2023/03/27 05:31:44;;;;;;;4.63;1.40;;;4.20;99.90;;;;;;5030380;28;20029;-49
2023/03/27 05:34:10;;;;;;;6.18;1.30;;;4.20;99.90;;;;;;5030266;28;20024;-47
2023/03/27 05:36:36;;;;;;;2.63;1.17;;;4.20;99.90;;;;;;5030054;28;20037;-48
2023/03/27 05:39:03;;;;;;;5.18;1.08;;;4.10;99.90;;;;;;5029776;28;20025;-53
2023/03/27 05:41:29;;;;;;;3.78;1.23;;;4.20;99.90;;;;;;5030168;28;20536;-56
2023/03/27 05:43:54;;;;;;;1.95;1.20;;;4.10;99.90;;;;;;5030209;28;20025;-56
2023/03/27 05:46:21;;;;;;;4.15;1.48;;;4.10;99.90;;;;;;5016520;28;20394;-46
2023/03/27 05:48:47;;;;;;;3.05;1.38;;;4.10;99.90;;;;;;5030394;28;20025;-50
2023/03/27 05:51:13;;;;;;;4.40;1.30;;;4.10;99.90;;;;;;5030615;28;20355;-53
2023/03/27 05:53:38;;;;;;;9.48;1.60;;;4.00;99.90;;;;;;5029952;28;20029;-49
2023/03/27 05:56:07;;;;;;;9.93;1.55;;;4.00;99.90;;;;;;5029903;28;20025;-50
2023/03/27 05:58:33;;;;;;;4.32;1.60;;;4.10;99.90;;;;;;5030210;28;20033;-48
2023/03/27 06:00:59;;;;;;;4.45;1.30;;;4.00;99.90;;;;;;5029922;28;20500;-44
2023/03/27 06:03:29;;;;;;;6.18;1.50;;;4.00;99.90;;;;;;5029999;28;20084;-46
2023/03/27 06:05:56;;;;;;;5.72;1.98;;;4.00;99.90;;;;;;5012792;28;20053;-43
2023/03/27 06:08:22;;;;;;;4.22;1.45;;;4.10;99.90;;;;;;5031813;28;20032;-46
2023/03/27 06:10:47;;;;;;;7.32;1.58;;;4.10;99.90;;;;;;5033669;28;20033;-48
2023/03/27 06:13:13;;;;;;;7.22;1.65;;;4.20;99.90;;;;;;5034027;28;20105;-47
2023/03/27 06:15:41;;;;;;;11.43;1.90;;;4.20;99.90;;;;;;5033709;28;20029;-51
2023/03/27 06:18:08;;;;;;;9.90;1.63;;;4.40;99.90;;;;;;5033609;28;20033;-42
2023/03/27 06:20:34;;;;;;;3.47;1.30;;;4.40;99.90;;;;;;5033569;28;20030;-45
2023/03/27 06:23:02;;;;;;;7.38;1.75;;;4.50;99.90;;;;;;5033632;28;20036;-51
2023/03/27 06:25:33;;;;;;;7.38;1.73;;;4.60;99.90;;;;;;5033273;28;20057;-44
2023/03/27 06:28:00;;;;;;;5.13;1.50;;;4.80;99.90;;;;;;5033325;28;20383;-51
2023/03/27 06:30:26;;;;;;;5.00;1.83;;;4.90;99.90;;;;;;5032886;28;20025;-48
2023/03/27 06:32:56;;;;;;;5.15;1.67;;;4.90;99.90;;;;;;5032574;28;20053;-48
2023/03/27 06:35:23;;;;;;;6.30;1.55;;;5.00;99.90;;;;;;5030741;28;20025;-51
2023/03/27 06:37:49;;;;;;;9.00;1.98;;;5.10;99.90;;;;;;5031940;28;20037;-57
2023/03/27 06:40:23;;;;;;;4.25;1.40;;;5.20;99.90;;;;;;5032901;28;20049;-50
2023/03/27 06:43:06;;;;;;;5.80;1.65;;;5.20;99.90;;;;;;5032689;28;20029;-52
2023/03/27 06:45:43;;;;;;;6.75;1.40;;;5.30;99.90;;;;;;5033241;28;20037;-51
2023/03/27 06:48:09;;;;;;;3.63;1.33;;;5.40;99.90;;;;;;5033033;28;20037;-49
2023/03/27 06:50:36;;;;;;;6.68;1.70;;;5.50;99.90;;;;;;5033094;28;20028;-52
2023/03/27 06:53:02;;;;;;;12.55;1.40;;;5.60;99.90;;;;;;5032613;28;20029;-52
2023/03/27 06:55:30;;;;;;;3.30;1.33;;;5.80;99.90;;;;;;5032743;28;20037;-52
2023/03/27 06:57:58;;;;;;;17.08;2.33;;;6.00;99.90;;;;;;5032864;28;20040;-47
2023/03/27 07:00:27;;;;;;;4.95;1.35;;;6.20;99.90;;;;;;5032640;28;20619;-44
2023/03/27 07:02:58;;;;;;;5.10;1.20;;;6.40;99.90;;;;;;5031759;28;20030;-47
2023/03/27 07:05:26;;;;;;;5.85;1.20;;;6.60;99.90;;;;;;5031796;28;20034;-48
2023/03/27 07:07:53;;;;;;;6.80;1.80;;;6.70;99.90;;;;;;5032340;28;20040;-43
2023/03/27 07:10:19;;;;;;;7.47;1.65;;;6.90;99.90;;;;;;5032364;28;20045;-51
2023/03/27 07:12:47;;;;;;;4.80;1.27;;;7.10;99.90;;;;;;5032428;28;20482;-48
2023/03/27 07:15:13;;;;;;;6.07;1.40;;;7.30;99.90;;;;;;5032328;28;20096;-45
2023/03/27 07:17:43;;;;;;;4.95;1.40;;;7.60;99.90;;;;;;5032620;28;20018;-55
2023/03/27 07:20:10;;;;;;;5.05;1.30;;;7.90;99.90;;;;;;5031797;28;20032;-44
2023/03/27 07:22:36;;;;;;;5.00;1.17;;;8.30;99.90;;;;;;5032700;28;20033;-47
2023/03/27 07:25:03;;;;;;;5.10;1.20;;;8.50;99.90;;;;;;5032467;28;20036;-48
2023/03/27 07:27:29;;;;;;;6.15;1.20;;;8.70;99.90;;;;;;5032371;28;20059;-54
2023/03/27 07:29:57;;;;;;;5.50;1.55;;;8.70;99.90;;;;;;5032131;28;20468;-50
2023/03/27 07:32:23;;;;;;;10.77;1.42;;;8.80;99.90;;;;;;5032584;28;20056;-48
2023/03/27 07:34:49;;;;;;;7.57;1.52;;;8.90;99.90;;;;;;5003973;28;20060;-53
2023/03/27 07:37:15;;;;;;;3.85;1.20;;;9.00;99.90;;;;;;5032076;28;20025;-49
2023/03/27 07:39:40;;;;;;;3.75;1.00;;;9.30;99.90;;;;;;5032073;28;20041;-49
2023/03/27 07:42:07;;;;;;;5.13;1.15;;;9.70;99.90;;;;;;5032464;28;20644;-44
2023/03/27 07:44:33;;;;;;;5.28;1.13;;;9.90;99.90;;;;;;5013867;28;20021;-53
2023/03/27 07:46:59;;;;;;;4.20;1.20;;;10.20;99.90;;;;;;5031745;28;20473;-52
2023/03/27 07:49:25;;;;;;;5.43;1.35;;;10.40;99.90;;;;;;5031641;28;20033;-52
2023/03/27 07:51:52;;;;;;;5.13;2.03;;;10.30;99.90;;;;;;5031134;28;20113;-46
2023/03/27 07:54:18;;;;;;;8.73;1.65;;;10.10;99.90;;;;;;5031572;28;20034;-48
2023/03/27 07:56:43;;;;;;;5.50;1.45;;;10.00;99.80;;;;;;5031601;28;20030;-51
2023/03/27 07:59:10;;;;;;;6.40;1.83;;;10.20;99.90;;;;;;5031816;28;20056;-55
2023/03/27 08:01:36;;;;;;;9.38;1.58;;;10.40;99.90;;;;;;5031566;28;20100;-46
2023/03/27 08:04:02;;;;;;;4.25;1.17;;;10.40;99.00;;;;;;5031917;28;20102;-48
2023/03/27 08:06:28;;;;;;;5.35;1.50;;;10.40;99.20;;;;;;5031870;28;20047;-48
2023/03/27 08:08:54;;;;;;;3.97;1.48;;;10.90;99.90;;;;;;5031553;28;20028;-45
2023/03/27 08:11:19;;;;;;;5.90;1.85;;;11.40;96.40;;;;;;5031926;28;20124;-51
2023/03/27 08:13:45;;;;;;;7.70;1.55;;;11.90;95.70;;;;;;5013438;28;20041;-43
2023/03/27 08:16:14;;;;;;;6.57;1.13;;;12.20;94.90;;;;;;5031142;28;20083;-48
2023/03/27 08:18:40;;;;;;;4.15;1.38;;;13.00;93.80;;;;;;5030954;28;20021;-49
2023/03/27 08:21:07;;;;;;;6.35;1.23;;;13.70;93.30;;;;;;5031561;28;20109;-50
2023/03/27 08:23:35;;;;;;;5.00;1.10;;;13.50;89.60;;;;;;5011527;28;20120;-57
2023/03/27 08:26:00;;;;;;;5.97;1.10;;;13.40;86.90;;;;;;5031107;28;20104;-50
2023/03/27 08:28:30;;;;;;;3.75;1.25;;;13.90;90.20;;;;;;5028582;28;20460;-52
2023/03/27 08:30:57;;;;;;;7.55;1.50;;;14.30;86.10;;;;;;5004000;28;20030;-55
2023/03/27 08:33:26;;;;;;;7.60;1.50;;;14.20;82.00;;;;;;5030588;28;20033;-51
2023/03/27 08:35:53;;;;;;;4.97;1.00;;;13.90;81.00;;;;;;5026976;28;20044;-43
2023/03/27 08:38:19;;;;;;;4.80;1.00;;;14.20;84.30;;;;;;5027958;28;20065;-49
2023/03/27 08:40:51;;;;;;;3.67;1.10;;;14.70;80.70;;;;;;5023829;28;20084;-48
2023/03/27 08:43:20;;;;;;;4.80;1.38;;;15.40;81.20;;;;;;5030577;28;20013;-54
2023/03/27 08:45:54;;;;;;;7.32;1.10;;;15.30;73.00;;;;;;5030981;28;20036;-47
2023/03/27 08:48:28;;;;;;;4.38;1.17;;;15.20;75.10;;;;;;5030855;28;20041;-50
2023/03/27 08:50:59;;;;;;;4.35;1.10;;;15.00;77.80;;;;;;5028859;28;20022;-50
2023/03/27 08:53:51;;;;;;;3.67;1.13;;;15.80;72.10;;;;;;5029852;28;20034;-41
2023/03/27 08:56:17;;;;;;;5.35;1.00;;;18.20;68.70;;;;;;5023138;28;20029;-38
2023/03/27 08:58:45;;;;;;;4.55;1.08;;;18.30;60.00;;;;;;5030946;28;20022;-40
2023/03/27 09:01:29;;;;;;;4.28;0.88;;;18.20;63.70;;;;;;5026780;28;20026;-40
2023/03/27 09:04:21;;;;;;;4.43;0.90;;;17.10;58.60;;;;;;5023479;28;20080;-38
2023/03/27 09:07:10;;;;;;;2.85;0.70;;;16.50;62.60;;;;;;5023258;28;20048;-50
2023/03/27 09:10:16;;;;;;;4.85;0.90;;;16.60;62.50;;;;;;5018777;28;20072;-41
2023/03/27 09:12:49;;;;;;;4.65;1.20;;;17.00;60.60;;;;;;5021485;28;20045;-44
2023/03/27 09:15:24;;;;;;;5.63;1.05;;;16.70;59.70;;;;;;5024669;28;20402;-47
2023/03/27 09:17:53;;;;;;;4.20;0.75;;;16.50;61.40;;;;;;5024341;28;20071;-41
2023/03/27 09:20:45;;;;;;;3.60;0.80;;;16.80;61.60;;;;;;5026057;28;20033;-50
2023/03/27 09:23:33;;;;;;;3.65;1.02;;;16.60;57.70;;;;;;5017766;28;20113;-41
2023/03/27 09:26:06;;;;;;;2.78;0.85;;;16.90;61.00;;;;;;5026021;28;20109;-51
2023/03/27 09:28:49;;;;;;;4.53;0.95;;;17.20;61.10;;;;;;5028964;28;20064;-40
2023/03/27 09:31:22;;;;;;;3.60;0.90;;;16.90;58.70;;;;;;5023121;28;20112;-45
2023/03/27 09:33:48;;;;;;;5.68;1.02;;;16.40;57.00;;;;;;5026608;28;20033;-43
2023/03/27 09:36:13;;;;;;;3.47;1.10;;;17.00;60.00;;;;;;5025485;28;20527;-43
2023/03/27 09:38:49;;;;;;;3.17;0.70;;;18.40;60.90;;;;;;5025104;28;20021;-46
2023/03/27 09:41:52;;;;;;;3.13;0.80;;;20.60;55.00;;;;;;5028719;28;20037;-48
2023/03/27 09:44:25;;;;;;;3.45;0.90;;;22.70;49.30;;;;;;4945996;29;20438;-47
2023/03/27 09:46:59;;;;;;;2.85;0.90;;;23.40;55.60;;;;;;5014188;28;20053;-50
2023/03/27 09:49:26;;;;;;;3.83;1.15;;;24.20;48.70;;;;;;5022740;28;20096;-45
2023/03/27 09:51:53;;;;;;;3.30;0.80;;;25.10;45.30;;;;;;5033305;28;20033;-43
2023/03/27 09:54:21;;;;;;;3.45;1.02;;;23.40;43.90;;;;;;5033967;28;20100;-41
2023/03/27 09:57:11;;;;;;;2.75;0.75;;;24.40;47.00;;;;;;5034054;28;20057;-44
2023/03/27 09:59:50;;;;;;;2.40;0.60;;;25.00;44.90;;;;;;5026509;28;20032;-46
2023/03/27 10:02:26;;;;;;;3.78;0.90;;;25.50;43.10;;;;;;5032167;28;20118;-47
2023/03/27 10:05:10;;;;;;;4.43;1.13;;;25.40;40.90;;;;;;5027023;28;20022;-44
2023/03/27 10:07:41;;;;;;;5.07;1.55;;;25.20;42.20;;;;;;5027516;28;20047;-48
2023/03/27 10:10:16;;;;;;;7.82;1.77;;;23.90;42.10;;;;;;5026005;28;21182;-48
2023/03/27 10:12:49;;;;;;;6.35;1.70;;;24.60;43.00;;;;;;5028580;28;20026;-51
2023/03/27 10:15:32;;;;;;;6.07;1.20;;;24.60;38.60;;;;;;5027081;28;20028;-42
2023/03/27 10:18:01;;;;;;;4.68;1.10;;;24.80;44.20;;;;;;5031350;28;20037;-48
2023/03/27 10:20:27;;;;;;;;;;;24.30;39.10;;;;;;5028920;28;20025;-50
2023/03/27 10:23:06;;;;;;;3.55;0.90;;;22.60;46.10;;;;;;5024980;28;19917;-43
2023/03/27 10:25:36;;;;;;;4.93;0.85;;;22.90;41.20;;;;;;5027930;28;20029;-45
2023/03/27 10:28:33;;;;;;;4.65;1.23;;;22.40;43.40;;;;;;5029765;28;20029;-50
2023/03/27 10:31:07;;;;;;;4.55;1.05;;;20.80;45.80;;;;;;5028482;28;20030;-52
2023/03/27 10:33:38;;;;;;;5.40;1.10;;;21.20;43.50;;;;;;5031636;28;20021;-47
2023/03/27 10:36:07;;;;;;;3.63;0.70;;;22.60;42.00;;;;;;5031988;28;20426;-44
2023/03/27 10:38:36;;;;;;;3.55;0.63;;;22.50;42.90;;;;;;5028596;28;20041;-48
2023/03/27 10:41:08;;;;;;;;;;;23.60;45.90;;;;;;5031731;28;20088;-44
2023/03/27 10:43:46;;;;;;;3.15;0.98;;;24.90;41.50;;;;;;5014094;28;19912;-49
2023/03/27 10:46:15;;;;;;;6.10;1.85;;;26.20;42.00;;;;;;5030677;28;20109;-45
2023/03/27 10:48:59;;;;;;;3.58;0.93;;;26.70;38.80;;;;;;5031696;28;20091;-48
2023/03/27 10:51:33;;;;;;;5.07;1.10;;;26.60;39.30;;;;;;5031737;28;20033;-45
2023/03/27 10:54:23;;;;;;;4.05;1.23;;;28.00;35.30;;;;;;5031068;28;20116;-42
2023/03/27 10:56:55;;;;;;;4.10;0.80;;;27.30;35.10;;;;;;5029814;28;20087;-44
2023/03/27 10:59:30;;;;;;;6.40;1.08;;;24.50;37.80;;;;;;5030893;28;20049;-41
2023/03/27 11:02:01;;;;;;;4.38;0.90;;;22.00;42.90;;;;;;5031067;28;20104;-47
2023/03/27 11:04:57;;;;;;;3.75;0.98;;;21.60;46.10;;;;;;5030608;28;20048;-52
2023/03/27 11:07:39;;;;;;;2.38;0.80;;;23.10;44.90;;;;;;5021437;28;20052;-45
2023/03/27 11:10:21;;;;;;;3.03;0.73;;;23.30;41.50;;;;;;5027592;28;20029;-44
2023/03/27 11:12:56;;;;;;;3.75;1.00;;;22.50;38.60;;;;;;5019150;28;20512;-40
2023/03/27 11:15:28;;;;;;;3.30;0.90;;;23.80;40.70;;;;;;5032576;28;20018;-50
2023/03/27 11:18:22;;;;;;;4.55;1.10;;;23.90;41.10;;;;;;5032257;28;20017;-42
2023/03/27 11:20:59;;;;;;;5.78;1.10;;;26.50;40.20;;;;;;4994753;28;20033;-45
2023/03/27 11:23:30;;;;;;;4.70;1.00;;;27.40;35.00;;;;;;5024119;28;20582;-49
2023/03/27 11:25:58;;;;;;;4.15;1.30;;;27.20;35.60;;;;;;5032333;28;20022;-45
2023/03/27 11:28:43;;;;;;;2.08;0.63;;;27.60;35.90;;;;;;5024997;28;20371;-52
2023/03/27 11:31:19;;;;;;;3.20;0.85;;;28.10;34.30;;;;;;5024291;28;20084;-43
2023/03/27 11:33:51;;;;;;;4.78;1.23;;;27.20;34.30;;;;;;5030646;28;20025;-48
2023/03/27 11:36:36;;;;;;;3.13;1.40;;;26.30;35.30;;;;;;5030613;28;20021;-42
2023/03/27 11:39:34;;;;;;;3.85;1.00;;;23.60;38.30;;;;;;5030768;28;20036;-47
2023/03/27 11:42:08;;;;;;;3.92;1.10;;;24.80;41.00;;;;;;4994585;28;20048;-45
2023/03/27 11:44:34;;;;;;;2.30;0.85;;;24.80;36.80;;;;;;5025533;28;20037;-45
2023/03/27 11:47:10;;;;;;;1.95;0.93;;;24.60;36.40;;;;;;5025910;28;20037;-43
2023/03/27 11:50:09;;;;;;;3.25;0.85;;;23.00;36.70;;;;;;5027274;28;20470;-42
2023/03/27 11:52:45;;;;;;;2.53;0.80;;;23.20;41.30;;;;;;5029052;28;20045;-40
2023/03/27 11:55:14;;;;;;;4.50;0.80;;;23.10;38.70;;;;;;5031477;28;20444;-49
2023/03/27 11:57:48;;;;;;;3.38;0.95;;;22.60;38.70;;;;;;5030411;28;20017;-44
2023/03/27 12:00:18;;;;;;;3.50;0.90;;;21.90;40.60;;;;;;5026981;28;20072;-46
2023/03/27 12:03:13;;;;;;;3.40;0.90;;;20.50;41.60;;;;;;5026593;28;20033;-52
2023/03/27 12:06:01;;;;;;;3.47;0.93;;;19.50;41.30;;;;;;4999192;28;20571;-46
2023/03/27 12:08:33;;;;;;;2.72;0.80;;;17.90;42.20;;;;;;5029114;28;20079;-45
2023/03/27 12:11:03;;;;;;;6.20;1.08;;;17.20;44.40;;;;;;5030628;28;20064;-46
2023/03/27 12:13:59;;;;;;;3.10;1.00;;;16.90;45.30;;;;;;5029270;28;20048;-51
2023/03/27 12:16:51;;;;;;;3.28;0.93;;;16.40;44.70;;;;;;5029312;28;20021;-52
2023/03/27 12:19:29;;;;;;;5.65;1.00;;;15.60;46.50;;;;;;5028822;28;20490;-44
2023/03/27 12:22:29;;;;;;;3.35;1.23;;;15.30;50.00;;;;;;5029078;28;20116;-46
2023/03/27 12:25:22;;;;;;;1.95;0.90;;;15.20;50.30;;;;;;5026976;28;20056;-45
2023/03/27 12:28:26;;;;;;;3.53;1.02;;;15.10;48.00;;;;;;5030854;28;20559;-42
2023/03/27 12:31:10;;;;;;;2.75;1.00;;;15.00;52.20;;;;;;5029010;28;20454;-51
2023/03/27 12:34:01;;;;;;;3.20;1.17;;;16.20;50.30;;;;;;5027199;28;20069;-41
2023/03/27 12:36:33;;;;;;;2.55;1.17;;;18.30;47.70;;;;;;5014353;28;20026;-46
2023/03/27 12:38:59;;;;;;;3.83;0.90;;;19.50;45.80;;;;;;5028591;28;20029;-42
2023/03/27 12:41:29;;;;;;;3.75;0.90;;;19.40;42.50;;;;;;5030310;28;20036;-51
2023/03/27 12:44:00;;;;;;;5.45;1.30;;;18.10;43.70;;;;;;5029950;28;20033;-44
2023/03/27 12:46:27;;;;;;;3.63;1.13;;;16.90;47.70;;;;;;5017896;28;20068;-42
2023/03/27 12:49:04;;;;;;;5.70;1.10;;;15.70;49.50;;;;;;5031239;28;20359;-43
2023/03/27 12:51:52;;;;;;;4.68;1.08;;;14.80;50.10;;;;;;5031102;28;20036;-45
2023/03/27 12:54:25;;;;;;;5.50;1.10;;;14.40;51.60;;;;;;5030131;28;20049;-46
2023/03/27 12:57:04;;;;;;;2.45;1.20;;;13.80;52.20;;;;;;5005841;28;20544;-52
2023/03/27 12:59:34;;;;;;;6.03;1.13;;;13.60;53.40;;;;;;5029837;28;20489;-44
2023/03/27 13:02:02;;;;;;;4.43;1.20;;;13.50;53.20;;;;;;5031050;28;20075;-49
2023/03/27 13:04:31;;;;;;;3.05;1.23;;;13.60;50.90;;;;;;5030496;28;20079;-51
2023/03/27 13:07:13;;;;;;;5.30;1.13;;;13.80;51.30;;;;;;5030698;28;20061;-48
2023/03/27 13:09:41;;;;;;;5.35;1.30;;;13.90;52.60;;;;;;5023018;28;20021;-46
2023/03/27 13:12:33;;;;;;;5.28;1.20;;;14.10;50.70;;;;;;5030712;28;20511;-43
2023/03/27 13:15:05;;;;;;;4.55;1.23;;;14.10;50.40;;;;;;5030199;28;20041;-52
2023/03/27 13:18:01;;;;;;;3.92;1.60;;;14.00;50.00;;;;;;5017197;28;20035;-42
2023/03/27 13:20:44;;;;;;;5.10;1.42;;;14.00;54.30;;;;;;5030419;28;20044;-42